createdAt,value
2018-10-19T04:02:22.113Z,6.97
2018-10-19T04:04:50.467Z,6.93
2018-10-19T04:07:18.554Z,7.20
2018-10-19T04:09:46.632Z,7.20
2018-10-19T04:12:16.196Z,7.95
2018-10-19T04:14:44.293Z,6.70
2018-10-19T04:17:12.524Z,7.90
2018-10-19T04:19:41.574Z,8.97
2018-10-19T04:22:10.259Z,8.40
2018-10-19T04:24:38.376Z,7.33
2018-10-19T04:27:06.527Z,7.67
2018-10-19T04:29:34.583Z,6.95
2018-10-19T04:32:02.675Z,8.10
2018-10-19T04:34:32.068Z,7.67
2018-10-19T04:37:02.773Z,7.33
2018-10-19T04:39:32.213Z,7.63
2018-10-19T04:42:00.740Z,7.80
2018-10-19T04:44:29.270Z,8.40
2018-10-19T04:46:57.784Z,12.05
2018-10-19T04:49:25.872Z,9.20
2018-10-19T04:51:53.990Z,7.62
2018-10-19T04:54:22.468Z,6.70
2018-10-19T04:56:50.737Z,7.33
2018-10-19T04:59:19.136Z,7.40
2018-10-19T05:01:47.835Z,7.47
2018-10-19T05:04:15.927Z,7.47
2018-10-19T05:06:44.032Z,7.60
2018-10-19T05:09:12.955Z,7.93
2018-10-19T05:11:41.481Z,7.60
2018-10-19T05:14:09.712Z,7.63
2018-10-19T05:16:38.635Z,7.27
2018-10-19T05:19:07.429Z,7.35
2018-10-19T05:21:36.593Z,7.27
2018-10-19T05:24:05.952Z,7.40
2018-10-19T05:26:34.285Z,7.30
2018-10-19T05:29:04.678Z,7.50
2018-10-19T05:31:32.784Z,7.57
2018-10-19T05:34:01.658Z,7.97
2018-10-19T05:36:30.287Z,7.50
2018-10-19T05:38:58.787Z,7.90
2018-10-19T05:41:26.904Z,7.72
2018-10-19T05:43:57.084Z,7.50
2018-10-19T05:46:25.163Z,8.23
2018-10-19T05:48:56.547Z,7.53
2018-10-19T05:51:25.083Z,7.67
2018-10-19T05:53:56.787Z,8.13
2018-10-19T05:56:29.047Z,8.27
2018-10-19T05:58:58.362Z,7.20
2018-10-19T06:01:32.201Z,8.10
2018-10-19T06:04:01.340Z,8.40
2018-10-19T06:06:29.548Z,8.03
2018-10-19T06:08:57.652Z,8.00
2018-10-19T06:11:25.745Z,8.27
2018-10-19T06:13:53.853Z,8.08
2018-10-19T06:16:21.934Z,8.07
2018-10-19T06:18:50.760Z,7.85
2018-10-19T06:21:18.832Z,8.17
2018-10-19T06:23:48.231Z,8.00
2018-10-19T06:26:27.150Z,8.77
2018-10-19T06:28:55.253Z,8.95
2018-10-19T06:31:23.316Z,9.60
2018-10-19T06:33:52.344Z,9.97
2018-10-19T06:36:20.510Z,10.70
2018-10-19T06:38:58.801Z,9.90
2018-10-19T06:41:26.887Z,9.57
2018-10-19T06:43:54.972Z,9.70
2018-10-19T06:46:23.061Z,10.17
2018-10-19T06:48:51.517Z,9.73
2018-10-19T06:51:19.713Z,9.58
2018-10-19T06:53:51.547Z,10.17
2018-10-19T06:56:24.382Z,10.30
2018-10-19T06:58:53.671Z,11.63
2018-10-19T07:01:24.874Z,9.80
2018-10-19T07:03:52.995Z,9.67
2018-10-19T07:06:22.196Z,8.87
2018-10-19T07:08:55.263Z,10.20
2018-10-19T07:11:23.340Z,10.70
2018-10-19T07:13:52.039Z,10.43
2018-10-19T07:16:21.167Z,10.75
2018-10-19T07:18:53.131Z,12.23
2018-10-19T07:21:21.879Z,11.07
2018-10-19T07:23:49.969Z,11.60
2018-10-19T07:26:18.065Z,11.50
2018-10-19T07:28:46.171Z,13.32
2018-10-19T07:31:15.280Z,12.17
2018-10-19T07:33:43.476Z,13.25
2018-10-19T07:36:11.553Z,13.37
2018-10-19T07:38:39.708Z,13.27
2018-10-19T07:41:07.862Z,14.43
2018-10-19T07:43:35.908Z,13.37
2018-10-19T07:46:04.031Z,13.60
2018-10-19T07:48:32.166Z,12.65
2018-10-19T07:51:00.695Z,13.07
2018-10-19T07:53:28.818Z,14.07
2018-10-19T07:55:56.899Z,13.20
2018-10-19T07:58:24.989Z,14.43
2018-10-19T08:00:53.155Z,14.90
2018-10-19T08:03:21.771Z,15.17
2018-10-19T08:05:49.871Z,14.67
2018-10-19T08:08:18.019Z,14.50
2018-10-19T08:10:46.111Z,14.37
2018-10-19T08:13:14.200Z,14.98
2018-10-19T08:15:42.268Z,15.37
2018-10-19T08:18:10.382Z,15.27
2018-10-19T08:20:38.908Z,17.10
2018-10-19T08:23:07.061Z,17.10
2018-10-19T08:25:35.095Z,17.90
2018-10-19T08:28:03.214Z,16.93
2018-10-19T08:30:31.299Z,17.10
2018-10-19T08:32:59.472Z,18.27
2018-10-19T08:35:37.540Z,18.23
2018-10-19T08:38:05.651Z,19.50
2018-10-19T08:40:33.731Z,17.93
2018-10-19T08:43:01.942Z,17.73
2018-10-19T08:45:30.095Z,18.70
2018-10-19T08:47:58.231Z,17.73
2018-10-19T08:50:26.321Z,17.80
2018-10-19T08:52:54.435Z,17.50
2018-10-19T08:55:22.496Z,18.97
2018-10-19T08:57:50.691Z,19.10
2018-10-19T09:00:18.842Z,17.43
2018-10-19T09:02:46.854Z,17.75
2018-10-19T09:05:15.972Z,18.13
2018-10-19T09:07:44.047Z,18.63
2018-10-19T09:10:12.135Z,18.40
2018-10-19T09:12:40.422Z,18.13
2018-10-19T09:15:08.431Z,18.23
2018-10-19T09:17:36.530Z,18.80
2018-10-19T09:20:06.144Z,18.42
2018-10-19T09:22:34.247Z,18.17
2018-10-19T09:25:02.332Z,18.50
2018-10-19T09:27:30.504Z,17.87
2018-10-19T09:30:00.170Z,19.35
2018-10-19T09:32:28.252Z,18.63
2018-10-19T09:34:56.450Z,20.50
2018-10-19T09:37:24.474Z,20.37
2018-10-19T09:39:59.608Z,18.27
2018-10-19T09:42:27.682Z,19.33
2018-10-19T09:44:55.777Z,19.57
2018-10-19T09:47:23.858Z,19.43
2018-10-19T09:49:51.952Z,20.77
2018-10-19T09:52:20.089Z,19.42
2018-10-19T09:54:48.219Z,20.20
2018-10-19T09:57:17.214Z,20.00
2018-10-19T09:59:46.380Z,19.50
2018-10-19T10:02:14.460Z,18.90
2018-10-19T10:04:42.638Z,18.32
2018-10-19T10:07:10.882Z,17.83
2018-10-19T10:09:38.951Z,17.50
2018-10-19T10:12:07.039Z,18.27
2018-10-19T10:14:37.251Z,19.60
2018-10-19T10:17:05.331Z,18.97
2018-10-19T10:19:34.323Z,18.43
2018-10-19T10:22:02.465Z,19.80
2018-10-19T10:24:30.558Z,18.00
2018-10-19T10:26:58.753Z,17.98
2018-10-19T10:29:26.827Z,18.70
2018-10-19T10:31:54.948Z,18.17
2018-10-19T10:34:23.051Z,19.80
2018-10-19T10:36:51.180Z,17.57
2018-10-19T10:39:19.373Z,17.37
2018-10-19T10:41:47.392Z,17.80
